createdAt,value
2022-11-26T00:01:05.936Z,99128.89
2022-11-26T00:03:39.076Z,99126.55
2022-11-26T00:06:26.652Z,99126.09
2022-11-26T00:09:00.923Z,99126.05
2022-11-26T00:11:32.924Z,99132.30
2022-11-26T00:14:06.587Z,99133.30
2022-11-26T00:16:38.515Z,99133.80
2022-11-26T00:19:12.755Z,99140.95
2022-11-26T00:21:48.692Z,99137.98
2022-11-26T00:24:32.293Z,99140.94
2022-11-26T00:27:05.741Z,99145.78
2022-11-26T00:29:38.489Z,99142.53
2022-11-26T00:32:13.199Z,99148.48
2022-11-26T00:34:46.949Z,99150.58
2022-11-26T00:37:23.867Z,99153.79
2022-11-26T00:39:57.324Z,99156.25
2022-11-26T00:42:29.821Z,99157.80
2022-11-26T00:45:05.115Z,99160.88
2022-11-26T00:47:38.574Z,99168.61
2022-11-26T00:50:17.507Z,99165.19
2022-11-26T00:52:50.896Z,99166.33
2022-11-26T00:55:28.070Z,99170.55
2022-11-26T00:58:03.420Z,99167.44
2022-11-26T01:00:36.730Z,99170.83
2022-11-26T01:03:09.851Z,99173.55
2022-11-26T01:05:45.498Z,99171.84
2022-11-26T01:08:25.301Z,99172.39
2022-11-26T01:10:59.769Z,99175.29
2022-11-26T01:13:33.324Z,99183.94
2022-11-26T01:16:20.682Z,99182.09
2022-11-26T01:18:54.614Z,99184.90
2022-11-26T01:21:28.807Z,99187.20
2022-11-26T01:24:01.570Z,99188.27
2022-11-26T01:26:38.581Z,99188.95
2022-11-26T01:29:14.632Z,99187.95
2022-11-26T01:31:50.211Z,99188.83
2022-11-26T01:34:22.774Z,99184.65
2022-11-26T01:36:54.700Z,99188.34
2022-11-26T01:39:28.866Z,99183.95
2022-11-26T01:42:08.562Z,99187.01
2022-11-26T01:44:41.128Z,99186.16
2022-11-26T01:47:24.074Z,99190.14
2022-11-26T01:50:45.578Z,99188.88
2022-11-26T01:53:25.391Z,99197.09
2022-11-26T01:56:04.937Z,99193.78
2022-11-26T01:58:40.966Z,99191.66
2022-11-26T02:01:14.062Z,99192.40
2022-11-26T02:03:57.281Z,99190.19
2022-11-26T02:06:33.452Z,99188.80
2022-11-26T02:09:07.466Z,99191.50
2022-11-26T02:11:40.394Z,99193.52
2022-11-26T02:14:15.622Z,99189.98
2022-11-26T02:17:15.151Z,99190.84
2022-11-26T02:20:14.719Z,99194.35
2022-11-26T02:23:07.249Z,99197.25
2022-11-26T02:26:17.159Z,99200.05
2022-11-26T02:29:03.081Z,99200.77
2022-11-26T02:31:39.856Z,99194.57
2022-11-26T02:34:16.657Z,99196.72
2022-11-26T02:36:51.186Z,99194.70
2022-11-26T02:39:28.406Z,99196.50
2022-11-26T02:42:04.645Z,99189.10
2022-11-26T02:44:43.804Z,99192.77
2022-11-26T02:47:18.393Z,99196.13
2022-11-26T02:49:55.766Z,99199.36
2022-11-26T02:52:28.417Z,99202.75
2022-11-26T02:55:01.342Z,99208.56
2022-11-26T02:57:37.512Z,99214.41
2022-11-26T03:00:13.088Z,99211.17
2022-11-26T03:02:49.990Z,99208.99
2022-11-26T03:05:23.854Z,99212.55
2022-11-26T03:07:57.403Z,99211.69
2022-11-26T03:10:31.681Z,99212.26
2022-11-26T03:13:07.004Z,99213.61
2022-11-26T03:15:38.859Z,99210.45
2022-11-26T03:18:14.369Z,99209.15
2022-11-26T03:20:52.556Z,99208.66
2022-11-26T03:23:26.074Z,99212.66
2022-11-26T03:25:59.418Z,99206.34
2022-11-26T03:28:33.803Z,99212.73
2022-11-26T03:31:07.418Z,99210.60
2022-11-26T03:33:40.870Z,99214.19
2022-11-26T03:36:14.996Z,99219.89
2022-11-26T03:38:49.549Z,99219.64
2022-11-26T03:41:23.449Z,99224.30
2022-11-26T03:43:57.347Z,99227.14
2022-11-26T03:46:31.061Z,99232.70
2022-11-26T03:49:04.782Z,99228.18
2022-11-26T03:51:37.108Z,99223.19
2022-11-26T03:54:11.542Z,99222.90
2022-11-26T03:56:43.315Z,99229.14
2022-11-26T03:59:17.313Z,99229.26
2022-11-26T04:01:51.162Z,99235.63
2022-11-26T04:04:24.622Z,99237.92
2022-11-26T04:06:59.400Z,99240.89
2022-11-26T04:09:33.839Z,99239.45
2022-11-26T04:12:10.688Z,99243.68
2022-11-26T04:14:47.451Z,99246.27
2022-11-26T04:17:20.322Z,99244.83
2022-11-26T04:19:55.238Z,99251.52
2022-11-26T04:22:27.309Z,99260.60
2022-11-26T04:25:00.579Z,99257.17
2022-11-26T04:27:34.745Z,99263.59
2022-11-26T04:30:09.557Z,99267.94
2022-11-26T04:32:43.597Z,99269.25
2022-11-26T04:35:17.685Z,99271.38
2022-11-26T04:37:50.264Z,99273.13
2022-11-26T04:40:23.964Z,99271.23
2022-11-26T04:42:55.802Z,99273.88
2022-11-26T04:45:28.191Z,99274.66
2022-11-26T04:48:05.649Z,99281.04
2022-11-26T04:50:37.752Z,99285.48
2022-11-26T04:53:10.564Z,99287.58
2022-11-26T04:55:43.740Z,99286.89
2022-11-26T04:58:16.874Z,99286.52
2022-11-26T05:00:52.683Z,99289.26
2022-11-26T05:03:26.503Z,99284.83
2022-11-26T05:05:59.068Z,99284.81
2022-11-26T05:08:32.666Z,99289.04
2022-11-26T05:11:05.248Z,99289.34
2022-11-26T05:13:39.023Z,99283.38
2022-11-26T05:16:13.225Z,99283.42
2022-11-26T05:18:45.624Z,99295.34
2022-11-26T05:21:19.345Z,99294.69
2022-11-26T05:23:51.671Z,99298.82
2022-11-26T05:26:26.428Z,99305.69
2022-11-26T05:28:58.916Z,99300.43
2022-11-26T05:31:33.161Z,99307.27
2022-11-26T05:34:09.983Z,99309.05
2022-11-26T05:36:41.927Z,99317.70
2022-11-26T05:39:14.560Z,99319.40
2022-11-26T05:41:47.556Z,99324.68
2022-11-26T05:44:21.138Z,99322.71
2022-11-26T05:46:55.584Z,99323.34
2022-11-26T05:49:28.765Z,99326.58
2022-11-26T05:52:03.851Z,99320.45
2022-11-26T05:54:36.672Z,99328.90
2022-11-26T05:57:11.017Z,99333.80
2022-11-26T05:59:44.562Z,99337.05
2022-11-26T06:02:17.042Z,99338.55
2022-11-26T06:04:52.557Z,99340.11
2022-11-26T06:07:26.866Z,99342.20
2022-11-26T06:10:00.553Z,99344.48
2022-11-26T06:12:33.752Z,99350.98
2022-11-26T06:15:08.295Z,99349.83
2022-11-26T06:17:43.092Z,99349.88
2022-11-26T06:20:16.388Z,99353.80
2022-11-26T06:22:49.689Z,99355.10
2022-11-26T06:25:22.902Z,99354.38
2022-11-26T06:27:56.830Z,99357.17
2022-11-26T06:30:29.322Z,99360.66
2022-11-26T06:33:05.242Z,99357.86
2022-11-26T06:35:38.971Z,99363.34
2022-11-26T06:38:10.990Z,99364.23
2022-11-26T06:40:44.652Z,99362.58
2022-11-26T06:43:17.288Z,99361.90
2022-11-26T06:45:49.264Z,99369.77
2022-11-26T06:48:22.448Z,99370.02
2022-11-26T06:50:56.245Z,99376.42
2022-11-26T06:53:29.678Z,99381.93
2022-11-26T06:56:05.224Z,99384.13
2022-11-26T06:58:38.746Z,99386.87
2022-11-26T07:01:15.983Z,99386.90
2022-11-26T07:03:50.306Z,99388.94
2022-11-26T07:06:25.103Z,99388.59
2022-11-26T07:09:04.513Z,99393.35
2022-11-26T07:11:39.085Z,99397.19
2022-11-26T07:14:11.465Z,99395.46
2022-11-26T07:16:43.476Z,99399.70
2022-11-26T07:19:17.824Z,99402.10
2022-11-26T07:21:51.316Z,99409.31
2022-11-26T07:24:23.550Z,99412.92
2022-11-26T07:26:58.223Z,99412.77
2022-11-26T07:29:30.370Z,99411.67
2022-11-26T07:32:04.551Z,99415.59
2022-11-26T07:34:37.589Z,99410.49
2022-11-26T07:37:11.530Z,99421.50
2022-11-26T07:39:44.674Z,99419.20
2022-11-26T07:42:18.012Z,99418.33
2022-11-26T07:44:53.105Z,99421.52
2022-11-26T07:47:25.979Z,99427.16
2022-11-26T07:49:57.907Z,99429.16
2022-11-26T07:52:30.715Z,99427.19
2022-11-26T07:55:12.475Z,99428.48
2022-11-26T07:57:46.965Z,99433.70
2022-11-26T08:00:21.757Z,99434.36
2022-11-26T08:02:53.860Z,99434.95
2022-11-26T08:05:27.874Z,99438.90
2022-11-26T08:08:01.490Z,99438.30
2022-11-26T08:10:34.304Z,99445.84
2022-11-26T08:13:07.870Z,99446.36
2022-11-26T08:15:41.886Z,99448.42
2022-11-26T08:18:13.894Z,99445.47
2022-11-26T08:20:47.158Z,99447.54
2022-11-26T08:23:21.857Z,99446.61
2022-11-26T08:26:20.452Z,99439.90
2022-11-26T08:28:48.658Z,99441.61
2022-11-26T08:31:22.401Z,99446.34
2022-11-26T08:33:56.722Z,99453.14
2022-11-26T08:36:30.255Z,99453.39
2022-11-26T08:39:04.252Z,99457.98
2022-11-26T08:41:36.941Z,99462.39
2022-11-26T08:44:10.511Z,99456.04
2022-11-26T08:46:44.274Z,99466.66
2022-11-26T08:49:20.202Z,99467.39
2022-11-26T08:51:54.145Z,99465.64
2022-11-26T08:54:28.028Z,99468.70
2022-11-26T08:57:03.111Z,99474.40
2022-11-26T08:59:35.427Z,99477.21
2022-11-26T09:02:18.460Z,99480.38
2022-11-26T09:04:55.360Z,99481.15
2022-11-26T09:07:29.318Z,99481.37
2022-11-26T09:10:03.373Z,99484.00
2022-11-26T09:12:38.077Z,99481.88
2022-11-26T09:15:12.848Z,99485.27
2022-11-26T09:17:45.722Z,99486.39
2022-11-26T09:20:19.800Z,99487.67
2022-11-26T09:22:52.985Z,99489.86
2022-11-26T09:25:27.354Z,99492.71
2022-11-26T09:28:00.173Z,99498.09
2022-11-26T09:30:35.278Z,99498.65
2022-11-26T09:33:09.876Z,99499.55
2022-11-26T09:35:42.512Z,99498.06
2022-11-26T09:38:16.559Z,99498.33
2022-11-26T09:40:51.935Z,99501.00
2022-11-26T09:43:31.312Z,99502.83
2022-11-26T09:46:10.351Z,99501.71
2022-11-26T09:48:44.485Z,99497.47
2022-11-26T09:51:21.005Z,99495.63
2022-11-26T09:53:55.102Z,99498.17
2022-11-26T09:56:33.013Z,99492.11
2022-11-26T09:59:08.582Z,99492.78
2022-11-26T10:01:43.166Z,99491.86
2022-11-26T10:04:24.006Z,99493.18
2022-11-26T10:07:01.489Z,99494.59
2022-11-26T10:09:47.480Z,99490.63
2022-11-26T10:12:29.956Z,99490.85
2022-11-26T10:15:08.412Z,99493.02
2022-11-26T10:17:46.668Z,99490.42
2022-11-26T10:20:47.049Z,99490.84
2022-11-26T10:23:26.588Z,99496.52
2022-11-26T10:26:08.068Z,99499.27
2022-11-26T10:28:47.186Z,99493.27
2022-11-26T10:31:23.685Z,99494.50
2022-11-26T10:34:04.656Z,99489.95
2022-11-26T10:36:40.337Z,99483.10
2022-11-26T10:39:19.287Z,99484.54
2022-11-26T10:41:52.227Z,99485.30
2022-11-26T10:44:41.223Z,99485.30
2022-11-26T10:47:26.370Z,99480.08
2022-11-26T10:50:45.422Z,99481.72
2022-11-26T10:53:16.847Z,99475.31
2022-11-26T10:55:50.084Z,99479.27
2022-11-26T10:58:24.526Z,99477.74
2022-11-26T11:01:07.781Z,99475.35
2022-11-26T11:04:08.592Z,99478.87
2022-11-26T11:06:44.023Z,99471.15
2022-11-26T11:09:36.585Z,99476.48
2022-11-26T11:12:32.192Z,99476.02
2022-11-26T11:15:24.912Z,99476.64
2022-11-26T11:18:03.882Z,99477.25
2022-11-26T11:20:39.227Z,99479.14
2022-11-26T11:23:39.998Z,99481.71
2022-11-26T11:26:21.790Z,99485.16
2022-11-26T11:28:58.285Z,99489.70
2022-11-26T11:31:30.233Z,99489.04
2022-11-26T11:34:19.941Z,99489.38
2022-11-26T11:37:10.530Z,99488.73
2022-11-26T11:39:47.019Z,99489.13
2022-11-26T11:42:28.668Z,99488.05
2022-11-26T11:45:03.564Z,99492.84
2022-11-26T11:47:39.148Z,99493.45
2022-11-26T11:50:22.811Z,99496.55
2022-11-26T11:53:06.867Z,99494.36
2022-11-26T11:56:00.940Z,99498.46
2022-11-26T11:59:04.066Z,99495.87
2022-11-26T12:01:49.177Z,99497.89
2022-11-26T12:04:28.400Z,99496.83
2022-11-26T12:07:38.373Z,99499.85
2022-11-26T12:10:18.312Z,99497.77
2022-11-26T12:12:53.551Z,99497.73
2022-11-26T12:15:29.962Z,99503.15
2022-11-26T12:18:08.083Z,99501.55
2022-11-26T12:20:46.743Z,99502.77
2022-11-26T12:23:33.579Z,99506.39
2022-11-26T12:26:13.824Z,99507.55
2022-11-26T12:28:52.735Z,99507.99
2022-11-26T12:31:35.012Z,99511.23
2022-11-26T12:34:14.310Z,99507.48
2022-11-26T12:36:53.234Z,99508.20
2022-11-26T12:39:34.067Z,99510.66
2022-11-26T12:42:13.456Z,99514.27
2022-11-26T12:44:48.546Z,99513.30
2022-11-26T12:47:25.554Z,99508.15
2022-11-26T12:50:07.231Z,99513.02
2022-11-26T12:52:43.512Z,99514.52
2022-11-26T12:55:24.590Z,99514.79
2022-11-26T12:58:02.034Z,99513.04
2022-11-26T13:00:36.756Z,99512.73
2022-11-26T13:03:18.278Z,99515.54
2022-11-26T13:05:58.584Z,99515.84
2022-11-26T13:08:43.194Z,99516.00
2022-11-26T13:11:33.720Z,99516.55
2022-11-26T13:14:11.112Z,99516.66
2022-11-26T13:16:52.516Z,99522.43
2022-11-26T13:19:34.314Z,99520.69
2022-11-26T13:22:31.336Z,99521.77
2022-11-26T13:25:27.246Z,99523.90
2022-11-26T13:28:07.594Z,99528.58
2022-11-26T13:30:52.821Z,99529.83
2022-11-26T13:33:47.615Z,99528.69
2022-11-26T13:36:42.568Z,99532.71
2022-11-26T13:39:30.838Z,99536.72
2022-11-26T13:42:13.922Z,99538.19
2022-11-26T13:45:17.384Z,99537.13
2022-11-26T13:47:52.441Z,99536.64
2022-11-26T13:50:31.505Z,99540.94
2022-11-26T13:53:07.796Z,99537.81
2022-11-26T13:55:45.926Z,99541.46
2022-11-26T13:58:25.022Z,99538.79
2022-11-26T14:01:30.553Z,99538.16
2022-11-26T14:04:06.751Z,99538.19
2022-11-26T14:06:39.535Z,99540.40
2022-11-26T14:09:54.439Z,99544.52
2022-11-26T14:13:07.951Z,99544.86
2022-11-26T14:15:59.760Z,99547.98
2022-11-26T14:18:59.341Z,99545.23
2022-11-26T14:21:33.021Z,99550.46
2022-11-26T14:24:06.949Z,99549.29
2022-11-26T14:26:42.230Z,99551.02
2022-11-26T14:29:17.639Z,99552.71
2022-11-26T14:31:54.358Z,99552.95
2022-11-26T14:34:30.731Z,99553.71
2022-11-26T14:37:04.086Z,99559.20
2022-11-26T14:39:36.522Z,99559.07
2022-11-26T14:42:13.627Z,99560.02
2022-11-26T14:44:47.507Z,99562.80
2022-11-26T14:47:22.354Z,99564.60
2022-11-26T14:49:57.040Z,99573.92
2022-11-26T14:52:30.597Z,99570.53
2022-11-26T14:55:07.181Z,99573.05
2022-11-26T14:57:45.545Z,99575.13
2022-11-26T15:00:26.808Z,99572.95
2022-11-26T15:03:00.537Z,99577.40
2022-11-26T15:05:40.723Z,99578.42
2022-11-26T15:08:20.253Z,99581.71
2022-11-26T15:10:56.826Z,99584.15
2022-11-26T15:13:32.008Z,99588.96
2022-11-26T15:16:26.571Z,99588.03
2022-11-26T15:19:02.001Z,99590.38
2022-11-26T15:21:41.258Z,99590.23
2022-11-26T15:24:14.997Z,99592.52
2022-11-26T15:26:49.408Z,99596.23
2022-11-26T15:29:32.967Z,99598.30
2022-11-26T15:32:07.340Z,99598.34
2022-11-26T15:34:44.638Z,99601.31
2022-11-26T15:37:18.581Z,99605.77
2022-11-26T15:39:50.502Z,99604.94
2022-11-26T15:42:30.582Z,99607.96
2022-11-26T15:45:03.489Z,99613.85
2022-11-26T15:47:35.440Z,99616.92
2022-11-26T15:50:22.424Z,99616.39
2022-11-26T15:53:06.527Z,99617.36
2022-11-26T15:55:41.509Z,99623.25
2022-11-26T15:58:17.816Z,99622.79
2022-11-26T16:00:54.488Z,99625.23
2022-11-26T16:03:45.472Z,99627.98
2022-11-26T16:06:31.625Z,99626.33
2022-11-26T16:09:28.111Z,99633.95
2022-11-26T16:12:02.698Z,99634.91
2022-11-26T16:14:36.667Z,99638.50
2022-11-26T16:17:13.405Z,99644.08
2022-11-26T16:19:52.652Z,99647.84
2022-11-26T16:22:28.590Z,99644.40
2022-11-26T16:25:20.998Z,99644.91
2022-11-26T16:28:15.806Z,99640.42
2022-11-26T16:30:51.737Z,99648.17
2022-11-26T16:33:29.530Z,99649.33
2022-11-26T16:36:04.207Z,99651.98
2022-11-26T16:38:40.199Z,99653.60
2022-11-26T16:41:18.920Z,99654.11
2022-11-26T16:43:51.826Z,99652.49
2022-11-26T16:46:27.826Z,99660.54
2022-11-26T16:49:03.518Z,99666.13
2022-11-26T16:51:38.998Z,99662.94
2022-11-26T16:54:16.880Z,99664.39
2022-11-26T16:56:53.323Z,99667.65
2022-11-26T16:59:32.361Z,99676.52
2022-11-26T17:02:10.807Z,99682.20
2022-11-26T17:04:45.375Z,99692.89
2022-11-26T17:07:24.893Z,99700.54
2022-11-26T17:09:58.380Z,99699.80
2022-11-26T17:12:33.707Z,99695.03
2022-11-26T17:15:08.969Z,99704.19
2022-11-26T17:17:42.318Z,99708.83
2022-11-26T17:20:21.259Z,99713.77
2022-11-26T17:22:53.280Z,99719.84
2022-11-26T17:25:29.317Z,99717.71
2022-11-26T17:28:01.144Z,99716.66
2022-11-26T17:30:36.308Z,99721.11
2022-11-26T17:33:10.860Z,99721.48
2022-11-26T17:35:43.446Z,99719.38
2022-11-26T17:38:18.400Z,99721.58
2022-11-26T17:40:52.232Z,99725.83
2022-11-26T17:43:29.689Z,99730.92
2022-11-26T17:46:04.909Z,99732.70
2022-11-26T17:48:40.175Z,99732.77
2022-11-26T17:51:14.695Z,99729.95
2022-11-26T17:53:49.229Z,99731.63
2022-11-26T17:56:27.025Z,99733.13
2022-11-26T17:59:06.596Z,99733.45
2022-11-26T18:01:45.212Z,99729.97
2022-11-26T18:04:20.581Z,99734.71
2022-11-26T18:06:59.394Z,99737.02
2022-11-26T18:09:37.400Z,99734.35
2022-11-26T18:12:21.581Z,99736.23
2022-11-26T18:14:57.794Z,99739.44
2022-11-26T18:17:31.486Z,99740.19
2022-11-26T18:20:04.955Z,99739.31
2022-11-26T18:22:37.495Z,99743.48
2022-11-26T18:25:10.890Z,99740.42
2022-11-26T18:27:44.145Z,99744.70
2022-11-26T18:30:20.708Z,99750.45
2022-11-26T18:32:53.769Z,99753.57
2022-11-26T18:35:30.114Z,99749.47
2022-11-26T18:38:07.825Z,99753.56
2022-11-26T18:40:42.599Z,99753.05
2022-11-26T18:43:17.002Z,99756.45
2022-11-26T18:45:50.850Z,99764.67
2022-11-26T18:48:25.098Z,99767.29
2022-11-26T18:51:03.208Z,99766.06
2022-11-26T18:53:37.281Z,99769.76
2022-11-26T18:56:13.403Z,99770.76
2022-11-26T18:58:48.292Z,99774.80
2022-11-26T19:01:25.874Z,99778.39
2022-11-26T19:04:02.403Z,99784.94
2022-11-26T19:06:35.159Z,99787.27
2022-11-26T19:09:09.967Z,99785.04
2022-11-26T19:11:44.542Z,99787.14
2022-11-26T19:14:17.611Z,99791.90
2022-11-26T19:16:53.835Z,99793.13
2022-11-26T19:19:29.232Z,99796.61
2022-11-26T19:22:02.149Z,99800.58
2022-11-26T19:24:36.678Z,99799.11
2022-11-26T19:27:10.351Z,99803.01
2022-11-26T19:29:42.657Z,99804.55
2022-11-26T19:32:16.008Z,99806.45
2022-11-26T19:34:48.271Z,99810.02
2022-11-26T19:37:25.573Z,99809.77
2022-11-26T19:39:59.458Z,99810.89
2022-11-26T19:42:34.399Z,99816.53
2022-11-26T19:45:08.856Z,99813.23
2022-11-26T19:47:42.313Z,99815.02
2022-11-26T19:50:14.469Z,99816.69
2022-11-26T19:52:48.045Z,99816.11
2022-11-26T19:55:21.224Z,99826.77
2022-11-26T19:57:53.089Z,99831.13
2022-11-26T20:00:26.183Z,99828.95
2022-11-26T20:03:03.635Z,99829.59
2022-11-26T20:05:41.591Z,99830.05
2022-11-26T20:08:17.708Z,99832.48
2022-11-26T20:10:50.652Z,99838.80
2022-11-26T20:13:24.131Z,99840.88
2022-11-26T20:15:57.117Z,99847.27
2022-11-26T20:18:33.090Z,99845.14
2022-11-26T20:21:10.509Z,99847.86
2022-11-26T20:23:45.056Z,99848.44
2022-11-26T20:26:21.921Z,99851.88
2022-11-26T20:28:56.441Z,99853.30
2022-11-26T20:31:30.478Z,99854.54
2022-11-26T20:34:07.364Z,99853.73
2022-11-26T20:36:40.003Z,99856.77
2022-11-26T20:39:18.516Z,99850.42
2022-11-26T20:41:58.029Z,99850.32
2022-11-26T20:44:31.928Z,99857.70
2022-11-26T20:47:08.175Z,99857.72
2022-11-26T20:49:51.455Z,99859.32
2022-11-26T20:52:37.338Z,99865.08
2022-11-26T20:55:22.203Z,99866.83
2022-11-26T20:58:00.578Z,99865.82
2022-11-26T21:00:34.712Z,99864.61
2022-11-26T21:03:09.316Z,99863.85
2022-11-26T21:05:43.056Z,99863.86
2022-11-26T21:08:21.701Z,99873.70
2022-11-26T21:10:55.692Z,99875.17
2022-11-26T21:13:31.023Z,99873.92
2022-11-26T21:16:06.814Z,99868.64
2022-11-26T21:18:39.732Z,99871.94
2022-11-26T21:21:14.789Z,99876.30
2022-11-26T21:23:48.913Z,99875.70
2022-11-26T21:26:25.817Z,99872.70
2022-11-26T21:29:00.181Z,99867.33
2022-11-26T21:31:38.331Z,99866.73
2022-11-26T21:34:12.975Z,99871.51
2022-11-26T21:36:44.901Z,99871.17
2022-11-26T21:39:20.915Z,99877.54
2022-11-26T21:41:54.219Z,99877.63
2022-11-26T21:44:26.686Z,99876.14
2022-11-26T21:46:59.244Z,99876.66
2022-11-26T21:49:34.202Z,99878.17
2022-11-26T21:52:11.370Z,99878.11
2022-11-26T21:54:45.480Z,99881.13
2022-11-26T21:57:20.576Z,99884.05
2022-11-26T21:59:53.648Z,99886.13
2022-11-26T22:02:29.106Z,99885.27
2022-11-26T22:05:03.149Z,99884.36
2022-11-26T22:07:37.413Z,99886.10
2022-11-26T22:10:13.063Z,99887.52
2022-11-26T22:12:47.808Z,99884.06
2022-11-26T22:15:20.024Z,99883.73
2022-11-26T22:17:53.692Z,99884.36
2022-11-26T22:20:29.088Z,99881.83
2022-11-26T22:23:01.897Z,99882.92
2022-11-26T22:25:37.200Z,99889.64
2022-11-26T22:28:12.337Z,99890.79
2022-11-26T22:30:44.482Z,99891.69
2022-11-26T22:33:18.253Z,99892.19
2022-11-26T22:35:50.267Z,99891.14
2022-11-26T22:38:26.534Z,99891.92
2022-11-26T22:41:04.401Z,99892.98
2022-11-26T22:43:36.364Z,99888.67
2022-11-26T22:46:13.739Z,99888.55
2022-11-26T22:48:49.461Z,99889.18
2022-11-26T22:51:24.252Z,99891.93
2022-11-26T22:53:59.401Z,99887.82
2022-11-26T22:56:32.357Z,99894.21
2022-11-26T22:59:05.694Z,99893.64
2022-11-26T23:01:39.115Z,99885.27
2022-11-26T23:04:12.396Z,99883.50
2022-11-26T23:06:45.183Z,99884.34
2022-11-26T23:09:20.830Z,99881.79
2022-11-26T23:11:54.820Z,99878.71
2022-11-26T23:14:26.590Z,99881.04
2022-11-26T23:17:01.681Z,99879.45
2022-11-26T23:19:35.549Z,99887.15
2022-11-26T23:22:09.028Z,99895.72
2022-11-26T23:24:45.104Z,99899.21
2022-11-26T23:27:20.710Z,99900.04
2022-11-26T23:29:53.865Z,99899.73
2022-11-26T23:32:32.146Z,99898.17
2022-11-26T23:35:05.237Z,99899.61
2022-11-26T23:37:40.666Z,99905.17
2022-11-26T23:40:16.348Z,99898.33
2022-11-26T23:42:48.973Z,99898.48
2022-11-26T23:45:22.335Z,99894.31
2022-11-26T23:47:55.879Z,99889.77
2022-11-26T23:50:28.460Z,99887.26
2022-11-26T23:53:03.236Z,99888.98
2022-11-26T23:55:36.935Z,99885.88
2022-11-26T23:58:09.137Z,99879.67
